Terminal Aerodrome Forecast
Issued by NWS Billings, MT

Home | Current Version | Previous Version | Text Only | Print | Product List | Glossary On
Versions: 1 2 3 4 5 6 7 8 9 10 11 12 13
000
FTUS45 KBYZ 252320
TAFSHR
TAF
KSHR 252320Z 2600/2624 32022G30KT P6SM VCSH SCT080 BKN120
     FM260330 VRB05KT P6SM FEW080 BKN150
     FM261700 34007KT P6SM VCSH SCT050 BKN100=

USA.gov is the U.S. government's official web portal to all federal, state and local government web resources and services.